sensor_id;sensor_type;location;lat;lon;timestamp;P1;durP1;ratioP1;P2;durP2;ratioP2
14030;SDS011;7090;49.436;8.490;2023-05-15T00:01:17;7.40;;;7.10;;
14030;SDS011;7090;49.436;8.490;2023-05-15T00:03:42;7.50;;;7.20;;
14030;SDS011;7090;49.436;8.490;2023-05-15T00:06:08;7.40;;;7.13;;
14030;SDS011;7090;49.436;8.490;2023-05-15T00:08:33;7.10;;;6.90;;
14030;SDS011;7090;49.436;8.490;2023-05-15T00:10:59;7.37;;;7.10;;
14030;SDS011;7090;49.436;8.490;2023-05-15T00:13:25;7.10;;;6.90;;
14030;SDS011;7090;49.436;8.490;2023-05-15T00:15:50;7.47;;;7.17;;
14030;SDS011;7090;49.436;8.490;2023-05-15T00:18:16;7.50;;;7.20;;
14030;SDS011;7090;49.436;8.490;2023-05-15T00:20:42;7.70;;;7.40;;
14030;SDS011;7090;49.436;8.490;2023-05-15T00:23:08;7.50;;;7.20;;
14030;SDS011;7090;49.436;8.490;2023-05-15T00:25:33;7.30;;;7.00;;
14030;SDS011;7090;49.436;8.490;2023-05-15T00:27:59;7.80;;;7.50;;
14030;SDS011;7090;49.436;8.490;2023-05-15T00:30:24;7.40;;;7.10;;
14030;SDS011;7090;49.436;8.490;2023-05-15T00:32:50;7.00;;;6.80;;
14030;SDS011;7090;49.436;8.490;2023-05-15T00:35:16;7.40;;;7.10;;
14030;SDS011;7090;49.436;8.490;2023-05-15T00:37:41;7.20;;;7.00;;
14030;SDS011;7090;49.436;8.490;2023-05-15T00:40:08;7.10;;;6.90;;
14030;SDS011;7090;49.436;8.490;2023-05-15T00:42:34;6.80;;;6.60;;
14030;SDS011;7090;49.436;8.490;2023-05-15T00:45:01;7.03;;;6.80;;
14030;SDS011;7090;49.436;8.490;2023-05-15T00:47:27;6.77;;;6.57;;
14030;SDS011;7090;49.436;8.490;2023-05-15T00:49:53;6.90;;;6.70;;
14030;SDS011;7090;49.436;8.490;2023-05-15T00:52:20;7.53;;;7.23;;
14030;SDS011;7090;49.436;8.490;2023-05-15T00:54:46;6.30;;;6.10;;
14030;SDS011;7090;49.436;8.490;2023-05-15T00:57:12;6.03;;;5.83;;
14030;SDS011;7090;49.436;8.490;2023-05-15T00:59:38;6.57;;;6.37;;
14030;SDS011;7090;49.436;8.490;2023-05-15T01:02:05;6.13;;;5.93;;
14030;SDS011;7090;49.436;8.490;2023-05-15T01:04:31;6.60;;;6.30;;
14030;SDS011;7090;49.436;8.490;2023-05-15T01:06:56;6.30;;;6.10;;
14030;SDS011;7090;49.436;8.490;2023-05-15T01:09:22;7.33;;;7.03;;
14030;SDS011;7090;49.436;8.490;2023-05-15T01:11:49;6.60;;;6.40;;
14030;SDS011;7090;49.436;8.490;2023-05-15T01:14:17;6.50;;;6.30;;
14030;SDS011;7090;49.436;8.490;2023-05-15T01:16:43;6.70;;;6.50;;
14030;SDS011;7090;49.436;8.490;2023-05-15T01:19:09;7.00;;;6.80;;
14030;SDS011;7090;49.436;8.490;2023-05-15T01:24:15;6.60;;;6.40;;
14030;SDS011;7090;49.436;8.490;2023-05-15T01:27:11;6.53;;;6.33;;
14030;SDS011;7090;49.436;8.490;2023-05-15T01:29:54;7.17;;;6.97;;
14030;SDS011;7090;49.436;8.490;2023-05-15T01:35:20;7.07;;;6.87;;
14030;SDS011;7090;49.436;8.490;2023-05-15T01:37:47;6.80;;;6.60;;
14030;SDS011;7090;49.436;8.490;2023-05-15T01:40:18;7.10;;;6.90;;
14030;SDS011;7090;49.436;8.490;2023-05-15T01:42:50;7.00;;;6.80;;
14030;SDS011;7090;49.436;8.490;2023-05-15T01:45:19;7.30;;;7.00;;
14030;SDS011;7090;49.436;8.490;2023-05-15T01:47:48;7.03;;;6.83;;
14030;SDS011;7090;49.436;8.490;2023-05-15T01:50:14;6.80;;;6.60;;
14030;SDS011;7090;49.436;8.490;2023-05-15T01:52:42;6.90;;;6.70;;
14030;SDS011;7090;49.436;8.490;2023-05-15T01:55:11;6.37;;;6.17;;
14030;SDS011;7090;49.436;8.490;2023-05-15T01:57:39;7.00;;;6.70;;
14030;SDS011;7090;49.436;8.490;2023-05-15T02:00:06;6.43;;;6.17;;
14030;SDS011;7090;49.436;8.490;2023-05-15T02:02:34;5.90;;;5.70;;
14030;SDS011;7090;49.436;8.490;2023-05-15T02:05:01;6.00;;;5.80;;
14030;SDS011;7090;49.436;8.490;2023-05-15T02:07:27;6.10;;;5.90;;
14030;SDS011;7090;49.436;8.490;2023-05-15T02:09:55;6.00;;;5.80;;
14030;SDS011;7090;49.436;8.490;2023-05-15T02:12:23;6.40;;;6.20;;
14030;SDS011;7090;49.436;8.490;2023-05-15T02:14:49;6.70;;;6.50;;
14030;SDS011;7090;49.436;8.490;2023-05-15T02:17:15;6.73;;;6.53;;
14030;SDS011;7090;49.436;8.490;2023-05-15T02:19:41;6.60;;;6.40;;
14030;SDS011;7090;49.436;8.490;2023-05-15T02:22:07;6.87;;;6.67;;
14030;SDS011;7090;49.436;8.490;2023-05-15T02:24:33;6.50;;;6.30;;
14030;SDS011;7090;49.436;8.490;2023-05-15T02:26:59;6.90;;;6.70;;
14030;SDS011;7090;49.436;8.490;2023-05-15T02:32:28;6.70;;;6.50;;
14030;SDS011;7090;49.436;8.490;2023-05-15T02:35:07;6.50;;;6.30;;
14030;SDS011;7090;49.436;8.490;2023-05-15T02:37:45;6.20;;;6.00;;
14030;SDS011;7090;49.436;8.490;2023-05-15T02:40:15;6.13;;;5.93;;
14030;SDS011;7090;49.436;8.490;2023-05-15T02:42:41;6.47;;;6.27;;
14030;SDS011;7090;49.436;8.490;2023-05-15T02:45:09;6.27;;;6.07;;
14030;SDS011;7090;49.436;8.490;2023-05-15T02:47:35;6.10;;;5.90;;
14030;SDS011;7090;49.436;8.490;2023-05-15T02:50:02;6.10;;;5.90;;
14030;SDS011;7090;49.436;8.490;2023-05-15T02:52:29;6.50;;;6.30;;
14030;SDS011;7090;49.436;8.490;2023-05-15T02:54:55;6.40;;;6.20;;
14030;SDS011;7090;49.436;8.490;2023-05-15T02:57:20;6.40;;;6.20;;
14030;SDS011;7090;49.436;8.490;2023-05-15T02:59:46;6.50;;;6.30;;
14030;SDS011;7090;49.436;8.490;2023-05-15T03:02:12;6.50;;;6.30;;
14030;SDS011;7090;49.436;8.490;2023-05-15T03:04:37;6.97;;;6.77;;
14030;SDS011;7090;49.436;8.490;2023-05-15T03:07:03;7.10;;;6.80;;
14030;SDS011;7090;49.436;8.490;2023-05-15T03:09:29;6.50;;;6.30;;
14030;SDS011;7090;49.436;8.490;2023-05-15T03:11:54;6.50;;;6.30;;
14030;SDS011;7090;49.436;8.490;2023-05-15T03:14:20;6.50;;;6.30;;
14030;SDS011;7090;49.436;8.490;2023-05-15T03:16:45;6.50;;;6.30;;
14030;SDS011;7090;49.436;8.490;2023-05-15T03:19:11;6.47;;;6.27;;
14030;SDS011;7090;49.436;8.490;2023-05-15T03:21:36;6.93;;;6.73;;
14030;SDS011;7090;49.436;8.490;2023-05-15T03:24:02;6.70;;;6.50;;
14030;SDS011;7090;49.436;8.490;2023-05-15T03:26:28;7.23;;;6.93;;
14030;SDS011;7090;49.436;8.490;2023-05-15T03:28:53;7.30;;;7.00;;
14030;SDS011;7090;49.436;8.490;2023-05-15T03:31:19;6.23;;;6.03;;
14030;SDS011;7090;49.436;8.490;2023-05-15T03:33:45;6.30;;;6.10;;
14030;SDS011;7090;49.436;8.490;2023-05-15T03:36:13;6.20;;;6.00;;
14030;SDS011;7090;49.436;8.490;2023-05-15T03:38:39;6.57;;;6.33;;
14030;SDS011;7090;49.436;8.490;2023-05-15T03:41:05;6.67;;;6.37;;
14030;SDS011;7090;49.436;8.490;2023-05-15T03:43:30;5.67;;;5.47;;
14030;SDS011;7090;49.436;8.490;2023-05-15T03:45:57;6.17;;;5.97;;
14030;SDS011;7090;49.436;8.490;2023-05-15T03:48:23;5.80;;;5.60;;
14030;SDS011;7090;49.436;8.490;2023-05-15T03:50:48;5.93;;;5.73;;
14030;SDS011;7090;49.436;8.490;2023-05-15T03:53:16;5.90;;;5.70;;
14030;SDS011;7090;49.436;8.490;2023-05-15T03:55:42;6.07;;;5.87;;
14030;SDS011;7090;49.436;8.490;2023-05-15T03:58:07;6.00;;;5.80;;
14030;SDS011;7090;49.436;8.490;2023-05-15T04:00:33;6.20;;;6.00;;
14030;SDS011;7090;49.436;8.490;2023-05-15T04:02:58;5.80;;;5.60;;
14030;SDS011;7090;49.436;8.490;2023-05-15T04:05:24;6.17;;;5.97;;
14030;SDS011;7090;49.436;8.490;2023-05-15T04:07:50;6.63;;;6.23;;
14030;SDS011;7090;49.436;8.490;2023-05-15T04:10:15;6.00;;;5.80;;
14030;SDS011;7090;49.436;8.490;2023-05-15T04:12:41;6.20;;;6.00;;
14030;SDS011;7090;49.436;8.490;2023-05-15T04:15:20;6.37;;;6.17;;
14030;SDS011;7090;49.436;8.490;2023-05-15T04:17:48;6.63;;;6.43;;
14030;SDS011;7090;49.436;8.490;2023-05-15T04:20:15;6.13;;;5.93;;
14030;SDS011;7090;49.436;8.490;2023-05-15T04:22:43;6.20;;;6.00;;
14030;SDS011;7090;49.436;8.490;2023-05-15T04:25:10;6.10;;;5.90;;
14030;SDS011;7090;49.436;8.490;2023-05-15T04:27:36;6.80;;;6.60;;
14030;SDS011;7090;49.436;8.490;2023-05-15T04:30:02;6.80;;;6.60;;
14030;SDS011;7090;49.436;8.490;2023-05-15T04:32:29;6.50;;;6.30;;
14030;SDS011;7090;49.436;8.490;2023-05-15T04:34:57;6.70;;;6.50;;
14030;SDS011;7090;49.436;8.490;2023-05-15T04:37:27;6.93;;;6.63;;
14030;SDS011;7090;49.436;8.490;2023-05-15T04:39:53;7.10;;;6.80;;
14030;SDS011;7090;49.436;8.490;2023-05-15T04:42:19;6.60;;;6.40;;
14030;SDS011;7090;49.436;8.490;2023-05-15T04:44:44;6.80;;;6.60;;
14030;SDS011;7090;49.436;8.490;2023-05-15T04:47:10;7.00;;;6.70;;
14030;SDS011;7090;49.436;8.490;2023-05-15T04:49:36;6.87;;;6.60;;
14030;SDS011;7090;49.436;8.490;2023-05-15T04:52:02;6.97;;;6.67;;
14030;SDS011;7090;49.436;8.490;2023-05-15T04:54:28;6.10;;;5.90;;
14030;SDS011;7090;49.436;8.490;2023-05-15T04:56:53;5.70;;;5.50;;
14030;SDS011;7090;49.436;8.490;2023-05-15T04:59:19;5.70;;;5.50;;
14030;SDS011;7090;49.436;8.490;2023-05-15T05:01:44;6.60;;;6.30;;
14030;SDS011;7090;49.436;8.490;2023-05-15T05:04:10;6.97;;;6.67;;
14030;SDS011;7090;49.436;8.490;2023-05-15T05:06:35;7.10;;;6.80;;
14030;SDS011;7090;49.436;8.490;2023-05-15T05:09:01;6.80;;;6.60;;
14030;SDS011;7090;49.436;8.490;2023-05-15T05:11:27;6.53;;;6.33;;
14030;SDS011;7090;49.436;8.490;2023-05-15T05:13:53;6.50;;;6.30;;
14030;SDS011;7090;49.436;8.490;2023-05-15T05:16:18;7.50;;;7.20;;
14030;SDS011;7090;49.436;8.490;2023-05-15T05:18:45;16.90;;;8.93;;
14030;SDS011;7090;49.436;8.490;2023-05-15T05:21:10;8.95;;;8.50;;
14030;SDS011;7090;49.436;8.490;2023-05-15T05:23:36;8.77;;;8.30;;
14030;SDS011;7090;49.436;8.490;2023-05-15T05:26:02;9.90;;;9.50;;
14030;SDS011;7090;49.436;8.490;2023-05-15T05:28:27;10.60;;;9.75;;
14030;SDS011;7090;49.436;8.490;2023-05-15T05:30:53;7.00;;;6.80;;
14030;SDS011;7090;49.436;8.490;2023-05-15T05:33:18;8.98;;;8.60;;
14030;SDS011;7090;49.436;8.490;2023-05-15T05:35:44;9.05;;;8.68;;
14030;SDS011;7090;49.436;8.490;2023-05-15T05:38:09;7.70;;;7.40;;
14030;SDS011;7090;49.436;8.490;2023-05-15T05:40:35;7.80;;;7.30;;
14030;SDS011;7090;49.436;8.490;2023-05-15T05:43:02;8.05;;;7.75;;
14030;SDS011;7090;49.436;8.490;2023-05-15T05:45:27;6.80;;;6.60;;
14030;SDS011;7090;49.436;8.490;2023-05-15T05:47:56;6.82;;;6.63;;
14030;SDS011;7090;49.436;8.490;2023-05-15T05:50:22;7.20;;;6.90;;
14030;SDS011;7090;49.436;8.490;2023-05-15T05:52:48;6.75;;;6.55;;
14030;SDS011;7090;49.436;8.490;2023-05-15T05:55:14;7.18;;;6.88;;
14030;SDS011;7090;49.436;8.490;2023-05-15T05:57:40;6.72;;;6.53;;
14030;SDS011;7090;49.436;8.490;2023-05-15T06:00:06;6.43;;;6.22;;
14030;SDS011;7090;49.436;8.490;2023-05-15T06:02:33;6.20;;;6.00;;
14030;SDS011;7090;49.436;8.490;2023-05-15T06:05:00;6.90;;;6.65;;
14030;SDS011;7090;49.436;8.490;2023-05-15T06:07:25;7.70;;;7.10;;
14030;SDS011;7090;49.436;8.490;2023-05-15T06:09:52;7.47;;;7.18;;
14030;SDS011;7090;49.436;8.490;2023-05-15T06:12:17;8.02;;;7.72;;
14030;SDS011;7090;49.436;8.490;2023-05-15T06:14:43;6.68;;;6.47;;
14030;SDS011;7090;49.436;8.490;2023-05-15T06:17:09;7.25;;;6.95;;
14030;SDS011;7090;49.436;8.490;2023-05-15T06:19:35;6.97;;;6.72;;
14030;SDS011;7090;49.436;8.490;2023-05-15T06:22:00;6.57;;;6.38;;
14030;SDS011;7090;49.436;8.490;2023-05-15T06:24:26;6.22;;;6.03;;
14030;SDS011;7090;49.436;8.490;2023-05-15T06:26:51;6.20;;;6.00;;
14030;SDS011;7090;49.436;8.490;2023-05-15T06:29:17;6.93;;;6.63;;
14030;SDS011;7090;49.436;8.490;2023-05-15T06:31:43;5.72;;;5.53;;
14030;SDS011;7090;49.436;8.490;2023-05-15T06:34:08;6.28;;;6.07;;
14030;SDS011;7090;49.436;8.490;2023-05-15T06:36:34;6.22;;;6.03;;
14030;SDS011;7090;49.436;8.490;2023-05-15T06:39:00;6.55;;;6.30;;
14030;SDS011;7090;49.436;8.490;2023-05-15T06:41:26;7.07;;;6.68;;
14030;SDS011;7090;49.436;8.490;2023-05-15T06:43:51;6.60;;;6.30;;
14030;SDS011;7090;49.436;8.490;2023-05-15T06:46:19;7.82;;;7.38;;
14030;SDS011;7090;49.436;8.490;2023-05-15T06:48:45;6.40;;;6.20;;
14030;SDS011;7090;49.436;8.490;2023-05-15T06:51:11;7.40;;;7.10;;
14030;SDS011;7090;49.436;8.490;2023-05-15T06:53:37;8.20;;;7.80;;
14030;SDS011;7090;49.436;8.490;2023-05-15T06:56:02;6.78;;;6.47;;
14030;SDS011;7090;49.436;8.490;2023-05-15T06:58:28;6.95;;;6.63;;
14030;SDS011;7090;49.436;8.490;2023-05-15T07:00:53;7.80;;;7.40;;
14030;SDS011;7090;49.436;8.490;2023-05-15T07:03:19;8.60;;;7.95;;
14030;SDS011;7090;49.436;8.490;2023-05-15T07:05:45;7.28;;;6.78;;
14030;SDS011;7090;49.436;8.490;2023-05-15T07:08:11;7.63;;;7.30;;
14030;SDS011;7090;49.436;8.490;2023-05-15T07:10:36;8.65;;;8.23;;
14030;SDS011;7090;49.436;8.490;2023-05-15T07:13:02;6.80;;;6.50;;
14030;SDS011;7090;49.436;8.490;2023-05-15T07:15:27;7.03;;;6.57;;
14030;SDS011;7090;49.436;8.490;2023-05-15T07:17:53;6.30;;;6.10;;
14030;SDS011;7090;49.436;8.490;2023-05-15T07:20:19;6.38;;;6.18;;
14030;SDS011;7090;49.436;8.490;2023-05-15T07:22:44;7.80;;;7.40;;
14030;SDS011;7090;49.436;8.490;2023-05-15T07:25:10;7.60;;;7.20;;
14030;SDS011;7090;49.436;8.490;2023-05-15T07:27:35;8.00;;;7.53;;
14030;SDS011;7090;49.436;8.490;2023-05-15T07:30:03;6.97;;;6.50;;
14030;SDS011;7090;49.436;8.490;2023-05-15T07:32:30;6.82;;;6.53;;
14030;SDS011;7090;49.436;8.490;2023-05-15T07:34:56;7.50;;;7.10;;
14030;SDS011;7090;49.436;8.490;2023-05-15T07:37:21;7.32;;;7.03;;
14030;SDS011;7090;49.436;8.490;2023-05-15T07:39:47;6.57;;;6.20;;
14030;SDS011;7090;49.436;8.490;2023-05-15T07:42:13;9.18;;;8.57;;
14030;SDS011;7090;49.436;8.490;2023-05-15T07:44:39;6.00;;;5.80;;
14030;SDS011;7090;49.436;8.490;2023-05-15T07:47:04;9.23;;;8.63;;
14030;SDS011;7090;49.436;8.490;2023-05-15T07:49:30;7.18;;;6.78;;
14030;SDS011;7090;49.436;8.490;2023-05-15T07:51:56;6.63;;;6.32;;
14030;SDS011;7090;49.436;8.490;2023-05-15T07:54:22;6.93;;;6.60;;
14030;SDS011;7090;49.436;8.490;2023-05-15T07:56:47;9.88;;;9.07;;
14030;SDS011;7090;49.436;8.490;2023-05-15T07:59:13;8.30;;;7.70;;
14030;SDS011;7090;49.436;8.490;2023-05-15T08:01:39;8.23;;;7.47;;
14030;SDS011;7090;49.436;8.490;2023-05-15T08:04:05;6.85;;;6.60;;
14030;SDS011;7090;49.436;8.490;2023-05-15T08:06:31;6.80;;;6.60;;
14030;SDS011;7090;49.436;8.490;2023-05-15T08:08:57;6.53;;;6.25;;
14030;SDS011;7090;49.436;8.490;2023-05-15T08:11:23;8.43;;;7.82;;
14030;SDS011;7090;49.436;8.490;2023-05-15T08:13:49;6.93;;;6.63;;
14030;SDS011;7090;49.436;8.490;2023-05-15T08:16:14;7.38;;;6.97;;
14030;SDS011;7090;49.436;8.490;2023-05-15T08:18:40;7.10;;;6.80;;
14030;SDS011;7090;49.436;8.490;2023-05-15T08:21:06;7.53;;;7.23;;
14030;SDS011;7090;49.436;8.490;2023-05-15T08:23:31;6.60;;;6.40;;
14030;SDS011;7090;49.436;8.490;2023-05-15T08:25:57;6.80;;;6.50;;
14030;SDS011;7090;49.436;8.490;2023-05-15T08:28:23;7.50;;;7.13;;
14030;SDS011;7090;49.436;8.490;2023-05-15T08:30:48;7.85;;;7.25;;
14030;SDS011;7090;49.436;8.490;2023-05-15T08:33:14;6.93;;;6.63;;
14030;SDS011;7090;49.436;8.490;2023-05-15T08:35:40;7.10;;;6.80;;
14030;SDS011;7090;49.436;8.490;2023-05-15T08:38:05;7.45;;;7.05;;
14030;SDS011;7090;49.436;8.490;2023-05-15T08:40:31;7.95;;;7.55;;
14030;SDS011;7090;49.436;8.490;2023-05-15T08:42:58;7.97;;;7.50;;
14030;SDS011;7090;49.436;8.490;2023-05-15T08:45:27;7.00;;;6.70;;
14030;SDS011;7090;49.436;8.490;2023-05-15T08:47:53;6.57;;;6.38;;
14030;SDS011;7090;49.436;8.490;2023-05-15T08:50:21;7.22;;;6.90;;
14030;SDS011;7090;49.436;8.490;2023-05-15T08:52:47;7.05;;;6.65;;
14030;SDS011;7090;49.436;8.490;2023-05-15T08:55:15;8.05;;;7.65;;
14030;SDS011;7090;49.436;8.490;2023-05-15T08:57:41;6.85;;;6.55;;
14030;SDS011;7090;49.436;8.490;2023-05-15T09:00:09;7.15;;;6.85;;
14030;SDS011;7090;49.436;8.490;2023-05-15T09:02:38;7.18;;;6.88;;
14030;SDS011;7090;49.436;8.490;2023-05-15T09:05:05;6.93;;;6.63;;
14030;SDS011;7090;49.436;8.490;2023-05-15T09:07:31;8.45;;;7.88;;
14030;SDS011;7090;49.436;8.490;2023-05-15T09:09:58;7.30;;;7.00;;
14030;SDS011;7090;49.436;8.490;2023-05-15T09:12:25;7.35;;;7.05;;
14030;SDS011;7090;49.436;8.490;2023-05-15T09:14:57;9.93;;;9.32;;
14030;SDS011;7090;49.436;8.490;2023-05-15T09:17:36;6.85;;;6.55;;
14030;SDS011;7090;49.436;8.490;2023-05-15T09:20:03;7.50;;;7.20;;
14030;SDS011;7090;49.436;8.490;2023-05-15T09:22:35;7.15;;;6.85;;
14030;SDS011;7090;49.436;8.490;2023-05-15T09:25:01;9.02;;;8.55;;
14030;SDS011;7090;49.436;8.490;2023-05-15T09:27:28;8.13;;;7.72;;
14030;SDS011;7090;49.436;8.490;2023-05-15T09:29:54;8.18;;;7.78;;
14030;SDS011;7090;49.436;8.490;2023-05-15T09:32:31;7.95;;;7.50;;
14030;SDS011;7090;49.436;8.490;2023-05-15T09:34:57;7.82;;;7.53;;
14030;SDS011;7090;49.436;8.490;2023-05-15T09:37:27;7.20;;;6.90;;
14030;SDS011;7090;49.436;8.490;2023-05-15T09:39:54;9.80;;;9.20;;
14030;SDS011;7090;49.436;8.490;2023-05-15T09:42:32;7.72;;;7.32;;
14030;SDS011;7090;49.436;8.490;2023-05-15T09:44:58;9.48;;;8.90;;
14030;SDS011;7090;49.436;8.490;2023-05-15T09:47:24;7.40;;;7.10;;
14030;SDS011;7090;49.436;8.490;2023-05-15T09:49:50;7.30;;;7.00;;
14030;SDS011;7090;49.436;8.490;2023-05-15T09:52:16;9.30;;;8.55;;
14030;SDS011;7090;49.436;8.490;2023-05-15T09:54:43;7.93;;;7.47;;
14030;SDS011;7090;49.436;8.490;2023-05-15T09:57:11;7.72;;;7.43;;
14030;SDS011;7090;49.436;8.490;2023-05-15T09:59:47;9.07;;;8.43;;
14030;SDS011;7090;49.436;8.490;2023-05-15T10:02:21;8.73;;;8.23;;
14030;SDS011;7090;49.436;8.490;2023-05-15T10:04:54;7.75;;;7.38;;
14030;SDS011;7090;49.436;8.490;2023-05-15T10:07:26;9.30;;;8.48;;
14030;SDS011;7090;49.436;8.490;2023-05-15T10:09:52;8.30;;;7.90;;
14030;SDS011;7090;49.436;8.490;2023-05-15T10:12:18;8.70;;;8.27;;
14030;SDS011;7090;49.436;8.490;2023-05-15T10:14:44;10.45;;;9.65;;
14030;SDS011;7090;49.436;8.490;2023-05-15T10:17:11;7.95;;;7.55;;
14030;SDS011;7090;49.436;8.490;2023-05-15T10:19:38;7.85;;;7.45;;
14030;SDS011;7090;49.436;8.490;2023-05-15T10:22:04;8.90;;;8.40;;
14030;SDS011;7090;49.436;8.490;2023-05-15T10:24:31;8.60;;;8.05;;
14030;SDS011;7090;49.436;8.490;2023-05-15T10:26:57;9.23;;;8.73;;
14030;SDS011;7090;49.436;8.490;2023-05-15T10:29:23;8.50;;;7.90;;
14030;SDS011;7090;49.436;8.490;2023-05-15T10:31:51;12.18;;;10.77;;
14030;SDS011;7090;49.436;8.490;2023-05-15T10:34:17;10.25;;;9.45;;
14030;SDS011;7090;49.436;8.490;2023-05-15T10:36:44;9.02;;;8.52;;
14030;SDS011;7090;49.436;8.490;2023-05-15T10:39:10;7.80;;;7.40;;
14030;SDS011;7090;49.436;8.490;2023-05-15T10:41:37;9.27;;;8.65;;
14030;SDS011;7090;49.436;8.490;2023-05-15T10:44:04;12.13;;;10.68;;
14030;SDS011;7090;49.436;8.490;2023-05-15T10:46:31;8.85;;;8.45;;
14030;SDS011;7090;49.436;8.490;2023-05-15T10:48:58;10.75;;;10.15;;
14030;SDS011;7090;49.436;8.490;2023-05-15T10:51:29;14.77;;;10.32;;
14030;SDS011;7090;49.436;8.490;2023-05-15T10:53:56;9.10;;;8.52;;
14030;SDS011;7090;49.436;8.490;2023-05-15T10:56:30;8.52;;;8.13;;
14030;SDS011;7090;49.436;8.490;2023-05-15T10:59:05;8.93;;;8.43;;
14030;SDS011;7090;49.436;8.490;2023-05-15T11:01:33;7.88;;;7.47;;
14030;SDS011;7090;49.436;8.490;2023-05-15T11:04:03;8.30;;;7.90;;
14030;SDS011;7090;49.436;8.490;2023-05-15T11:06:33;9.27;;;8.77;;
14030;SDS011;7090;49.436;8.490;2023-05-15T11:12:01;9.18;;;8.77;;
14030;SDS011;7090;49.436;8.490;2023-05-15T11:14:29;9.57;;;8.95;;
14030;SDS011;7090;49.436;8.490;2023-05-15T11:16:56;8.35;;;7.95;;
14030;SDS011;7090;49.436;8.490;2023-05-15T11:24:50;9.07;;;8.48;;
14030;SDS011;7090;49.436;8.490;2023-05-15T11:27:29;9.15;;;8.65;;
14030;SDS011;7090;49.436;8.490;2023-05-15T11:40:48;9.70;;;8.75;;
14030;SDS011;7090;49.436;8.490;2023-05-15T11:43:20;8.15;;;7.80;;
14030;SDS011;7090;49.436;8.490;2023-05-15T11:45:52;8.90;;;8.40;;
14030;SDS011;7090;49.436;8.490;2023-05-15T11:48:20;8.23;;;7.85;;
14030;SDS011;7090;49.436;8.490;2023-05-15T11:50:48;7.85;;;7.53;;
14030;SDS011;7090;49.436;8.490;2023-05-15T11:53:14;9.15;;;8.60;;
14030;SDS011;7090;49.436;8.490;2023-05-15T11:55:41;8.52;;;8.13;;
14030;SDS011;7090;49.436;8.490;2023-05-15T11:58:11;9.55;;;8.95;;
14030;SDS011;7090;49.436;8.490;2023-05-15T12:00:40;9.45;;;8.90;;
14030;SDS011;7090;49.436;8.490;2023-05-15T12:03:10;8.93;;;8.48;;
14030;SDS011;7090;49.436;8.490;2023-05-15T12:05:39;10.00;;;9.27;;
14030;SDS011;7090;49.436;8.490;2023-05-15T12:08:08;8.85;;;8.45;;
14030;SDS011;7090;49.436;8.490;2023-05-15T12:10:43;8.68;;;8.35;;
14030;SDS011;7090;49.436;8.490;2023-05-15T12:13:10;8.85;;;8.48;;
14030;SDS011;7090;49.436;8.490;2023-05-15T12:15:37;9.85;;;9.35;;
14030;SDS011;7090;49.436;8.490;2023-05-15T12:18:04;9.15;;;8.65;;
14030;SDS011;7090;49.436;8.490;2023-05-15T12:20:31;9.88;;;9.30;;
14030;SDS011;7090;49.436;8.490;2023-05-15T12:22:58;9.48;;;9.07;;
14030;SDS011;7090;49.436;8.490;2023-05-15T12:25:24;9.40;;;8.85;;
14030;SDS011;7090;49.436;8.490;2023-05-15T12:27:50;9.13;;;8.65;;
14030;SDS011;7090;49.436;8.490;2023-05-15T12:30:16;7.75;;;7.43;;
14030;SDS011;7090;49.436;8.490;2023-05-15T12:32:42;9.20;;;8.60;;
14030;SDS011;7090;49.436;8.490;2023-05-15T12:35:09;9.43;;;8.88;;
14030;SDS011;7090;49.436;8.490;2023-05-15T12:37:36;9.70;;;9.05;;
14030;SDS011;7090;49.436;8.490;2023-05-15T12:40:02;9.68;;;9.18;;
14030;SDS011;7090;49.436;8.490;2023-05-15T12:42:43;8.90;;;8.50;;
14030;SDS011;7090;49.436;8.490;2023-05-15T12:47:44;10.82;;;10.13;;
14030;SDS011;7090;49.436;8.490;2023-05-15T12:50:19;9.55;;;9.05;;
14030;SDS011;7090;49.436;8.490;2023-05-15T12:52:52;10.05;;;9.52;;
14030;SDS011;7090;49.436;8.490;2023-05-15T12:55:25;9.45;;;8.95;;
14030;SDS011;7090;49.436;8.490;2023-05-15T12:57:56;8.82;;;8.45;;
14030;SDS011;7090;49.436;8.490;2023-05-15T13:00:23;8.88;;;8.45;;
14030;SDS011;7090;49.436;8.490;2023-05-15T13:02:53;9.02;;;8.63;;
14030;SDS011;7090;49.436;8.490;2023-05-15T13:05:27;8.65;;;8.25;;
14030;SDS011;7090;49.436;8.490;2023-05-15T13:07:56;8.75;;;8.35;;
14030;SDS011;7090;49.436;8.490;2023-05-15T13:10:27;9.57;;;9.07;;
14030;SDS011;7090;49.436;8.490;2023-05-15T13:12:56;9.48;;;8.98;;
14030;SDS011;7090;49.436;8.490;2023-05-15T13:15:27;9.10;;;8.70;;
14030;SDS011;7090;49.436;8.490;2023-05-15T13:18:02;10.70;;;10.00;;
14030;SDS011;7090;49.436;8.490;2023-05-15T13:20:34;8.60;;;8.20;;
14030;SDS011;7090;49.436;8.490;2023-05-15T13:23:03;9.25;;;8.80;;
14030;SDS011;7090;49.436;8.490;2023-05-15T13:25:29;11.45;;;10.55;;
14030;SDS011;7090;49.436;8.490;2023-05-15T13:27:58;10.57;;;9.80;;
14030;SDS011;7090;49.436;8.490;2023-05-15T13:30:24;8.90;;;8.50;;
14030;SDS011;7090;49.436;8.490;2023-05-15T13:32:51;10.07;;;9.57;;
14030;SDS011;7090;49.436;8.490;2023-05-15T13:35:17;10.43;;;9.73;;
14030;SDS011;7090;49.436;8.490;2023-05-15T13:37:43;11.48;;;10.38;;
14030;SDS011;7090;49.436;8.490;2023-05-15T13:40:09;10.65;;;9.95;;
14030;SDS011;7090;49.436;8.490;2023-05-15T13:42:39;9.05;;;8.63;;
14030;SDS011;7090;49.436;8.490;2023-05-15T13:45:10;10.23;;;9.63;;
14030;SDS011;7090;49.436;8.490;2023-05-15T13:47:37;10.35;;;9.65;;
14030;SDS011;7090;49.436;8.490;2023-05-15T13:50:06;8.88;;;8.48;;
14030;SDS011;7090;49.436;8.490;2023-05-15T13:52:33;9.35;;;8.93;;
14030;SDS011;7090;49.436;8.490;2023-05-15T13:54:59;9.50;;;9.00;;
14030;SDS011;7090;49.436;8.490;2023-05-15T13:57:25;9.95;;;9.35;;
14030;SDS011;7090;49.436;8.490;2023-05-15T13:59:51;9.60;;;9.10;;
14030;SDS011;7090;49.436;8.490;2023-05-15T14:02:16;12.90;;;12.10;;
14030;SDS011;7090;49.436;8.490;2023-05-15T14:04:42;8.93;;;8.52;;
14030;SDS011;7090;49.436;8.490;2023-05-15T14:07:08;9.20;;;8.80;;
14030;SDS011;7090;49.436;8.490;2023-05-15T14:09:33;10.10;;;9.60;;
14030;SDS011;7090;49.436;8.490;2023-05-15T14:11:59;9.02;;;8.63;;
14030;SDS011;7090;49.436;8.490;2023-05-15T14:14:25;9.85;;;9.35;;
14030;SDS011;7090;49.436;8.490;2023-05-15T14:16:50;8.70;;;8.30;;
14030;SDS011;7090;49.436;8.490;2023-05-15T14:19:16;9.10;;;8.70;;
14030;SDS011;7090;49.436;8.490;2023-05-15T14:21:42;8.73;;;8.32;;
14030;SDS011;7090;49.436;8.490;2023-05-15T14:24:07;8.63;;;8.23;;
14030;SDS011;7090;49.436;8.490;2023-05-15T14:26:33;9.30;;;8.75;;
14030;SDS011;7090;49.436;8.490;2023-05-15T14:28:58;8.82;;;8.43;;
14030;SDS011;7090;49.436;8.490;2023-05-15T14:31:24;9.40;;;9.00;;
14030;SDS011;7090;49.436;8.490;2023-05-15T14:33:50;9.63;;;9.13;;
14030;SDS011;7090;49.436;8.490;2023-05-15T14:36:16;9.48;;;9.00;;
14030;SDS011;7090;49.436;8.490;2023-05-15T14:38:42;9.00;;;8.60;;
14030;SDS011;7090;49.436;8.490;2023-05-15T14:41:11;9.07;;;8.68;;
14030;SDS011;7090;49.436;8.490;2023-05-15T14:43:37;9.50;;;8.93;;
14030;SDS011;7090;49.436;8.490;2023-05-15T14:46:03;8.35;;;8.05;;
14030;SDS011;7090;49.436;8.490;2023-05-15T14:48:29;9.40;;;9.00;;
14030;SDS011;7090;49.436;8.490;2023-05-15T14:50:55;9.30;;;8.80;;
14030;SDS011;7090;49.436;8.490;2023-05-15T14:53:22;8.25;;;7.95;;
14030;SDS011;7090;49.436;8.490;2023-05-15T14:55:47;8.15;;;7.85;;
14030;SDS011;7090;49.436;8.490;2023-05-15T14:58:13;8.80;;;8.40;;
14030;SDS011;7090;49.436;8.490;2023-05-15T15:00:39;10.20;;;9.60;;
14030;SDS011;7090;49.436;8.490;2023-05-15T15:03:04;10.50;;;9.90;;
14030;SDS011;7090;49.436;8.490;2023-05-15T15:05:31;8.50;;;8.20;;
14030;SDS011;7090;49.436;8.490;2023-05-15T15:07:57;9.10;;;8.70;;
14030;SDS011;7090;49.436;8.490;2023-05-15T15:10:34;8.35;;;8.05;;
14030;SDS011;7090;49.436;8.490;2023-05-15T15:13:00;8.48;;;8.15;;
14030;SDS011;7090;49.436;8.490;2023-05-15T15:15:27;7.97;;;7.68;;
14030;SDS011;7090;49.436;8.490;2023-05-15T15:17:53;8.90;;;8.50;;
14030;SDS011;7090;49.436;8.490;2023-05-15T15:20:20;8.40;;;8.00;;
14030;SDS011;7090;49.436;8.490;2023-05-15T15:22:46;7.78;;;7.45;;
14030;SDS011;7090;49.436;8.490;2023-05-15T15:25:12;8.73;;;8.32;;
14030;SDS011;7090;49.436;8.490;2023-05-15T15:27:38;9.25;;;8.85;;
14030;SDS011;7090;49.436;8.490;2023-05-15T15:30:05;11.25;;;10.52;;